Impacts TAF Board
For situational awareness. Not to be used for flight planning purposes.
IDs:

PANC - Anchorage Intl, AK, US

Issued at 1459 UTC 03 Dec 2021
Updated at 1528 UTC 03 Dec 2021
Potential Impact None Slight Moderate High
Time1515Z 03/16Z 03/17Z 03/18Z 03/19Z 03/20Z 03/21Z 03/22Z 03/23Z 04/00Z 04/01Z 04/02Z 04/03Z 04/04Z>>
Type OBS PRVL
  [TEMP]  
PRVL
  [TEMP]  
PRVL
  [TEMP]  
PRVL
  [TEMP]  
PRVL PRVL PRVL PRVL PRVL PRVL PRVL PRVL PRVL
VIS 4 >6
  [2]  
>6
  [2]  
>6
  [2]  
>6
  [2]  
>6 >6 >6 >6 >6 >6 >6 >6 >6
CIG 5 --
  [2]  
--
  [2]  
--
  [2]  
--
  [2]  
-- -- -- -- -- -- -- -- --
Cover BKN SCT
  [BKN]  
SCT
  [BKN]  
SCT
  [BKN]  
SCT
  [BKN]  
SCT SCT SCT SCT SCT SCT SCT SCT SCT
FltCat IFR VFR
  [LIFR]  
VFR
  [LIFR]  
VFR
  [LIFR]  
VFR
  [LIFR]  
VFR VFR VFR VFR VFR VFR VFR VFR VFR
WX BR VCFG
  [BR]  
VCFG
  [BR]  
VCFG
  [BR]  
VCFG
  [BR]  
VCFG VCFG VCFG VCFG VCFG VCFG VCFG VCFG VCFG
WDir VRB 10
[10]
10
[10]
10
[10]
10
[10]
10 10 10 10 10 10 10 10 10
WSpd 0 5
  [5]  
5
  [5]  
5
  [5]  
5
  [5]  
5 5 5 5 5 5 5 5 5
WGst -- --
  [--]  
--
  [--]  
--
  [--]  
--
  [--]  
-- -- -- -- -- -- -- -- --
WSHgt -- --
[--]
--
[--]
--
[--]
--
[--]
-- -- -- -- -- -- -- -- --
WSDir -- --
[--]
--
[--]
--
[--]
--
[--]
-- -- -- -- -- -- -- -- --
WSSpd -- --
[--]
--
[--]
--
[--]
--
[--]
-- -- -- -- -- -- -- -- --
Raw TAF
PANC 031459Z 0315/0418 01005KT P6SM VCFG SCT002
  TEMPO 0316/0320 2SM BR BKN002


Raw METAR
PANC 031515Z 00000KT 4SM BR BKN005 M18/M22 A3019 RMK AO2 T11831222
PANC 031453Z 00000KT 10SM FEW003 M19/M23 A3018 RMK AO2 SLP226 I1000 I3000 T11941233 58004
PANC 031353Z 00000KT 10SM FEW004 M18/M21 A3019 RMK AO2 SLP227 T11781211
PANC 031253Z 36004KT 10SM CLR M17/M21 A3020 RMK AO2 SLP230 I1000 T11671206

METAR Board
Radar Display
Forecast Discussion
For situational awareness. Not to be used for flight planning purposes.